createdAt,value
2022-12-12T04:58:24.132Z,8.57
2022-12-12T05:01:33.703Z,9.35
2022-12-12T05:04:47.055Z,8.63
2022-12-12T05:07:56.002Z,8.90
2022-12-12T05:11:01.991Z,8.02
2022-12-12T05:14:08.285Z,8.15
2022-12-12T05:17:16.032Z,8.13
2022-12-12T05:20:18.448Z,8.07
2022-12-12T05:23:20.510Z,8.93
2022-12-12T05:26:28.997Z,8.60
2022-12-12T05:29:31.929Z,9.77
2022-12-12T05:32:34.299Z,8.43
2022-12-12T05:35:36.627Z,8.68
2022-12-12T05:38:39.644Z,9.25
2022-12-12T05:41:41.669Z,8.93
2022-12-12T05:44:44.855Z,9.40
2022-12-12T05:47:47.292Z,8.52
2022-12-12T05:50:50.987Z,9.02
2022-12-12T05:53:53.504Z,9.85
2022-12-12T05:56:55.843Z,10.30
2022-12-12T05:59:57.915Z,9.40
2022-12-12T06:03:00.257Z,10.32
2022-12-12T06:06:03.100Z,10.70
2022-12-12T06:09:05.212Z,10.00
2022-12-12T06:12:07.614Z,9.80
2022-12-12T06:15:10.480Z,10.93
2022-12-12T06:18:13.085Z,9.95
2022-12-12T06:21:15.141Z,10.50
2022-12-12T06:24:17.420Z,10.48
2022-12-12T06:27:19.784Z,10.73
2022-12-12T06:30:22.149Z,10.48
2022-12-12T06:33:24.452Z,11.38
2022-12-12T06:36:27.060Z,10.38
2022-12-12T06:39:29.142Z,10.60
2022-12-12T06:42:31.724Z,9.45
2022-12-12T06:45:33.790Z,10.05
2022-12-12T06:48:37.341Z,11.00
2022-12-12T06:51:44.147Z,11.77
2022-12-12T06:54:47.180Z,11.88
2022-12-12T06:57:49.478Z,11.27
2022-12-12T07:00:53.135Z,10.68
2022-12-12T07:03:55.357Z,10.50
2022-12-12T07:06:58.304Z,10.88
2022-12-12T07:10:00.364Z,10.30
2022-12-12T07:13:03.010Z,10.98
2022-12-12T07:16:06.008Z,10.68
2022-12-12T07:19:09.380Z,11.50
2022-12-12T07:22:11.984Z,10.50
2022-12-12T07:25:15.379Z,12.10
2022-12-12T07:28:17.792Z,10.55
2022-12-12T07:31:22.359Z,10.23
2022-12-12T07:34:25.324Z,9.60
2022-12-12T07:37:27.659Z,11.07
2022-12-12T07:40:29.910Z,10.57
2022-12-12T07:43:33.211Z,10.30
2022-12-12T07:46:35.854Z,9.85
2022-12-12T07:49:38.413Z,9.63
2022-12-12T07:52:40.448Z,9.70
2022-12-12T07:55:42.735Z,9.95
2022-12-12T07:58:45.269Z,9.02
2022-12-12T08:01:47.906Z,9.77
2022-12-12T08:04:50.352Z,10.07
2022-12-12T08:07:52.477Z,9.48
2022-12-12T08:10:54.837Z,9.52
2022-12-12T08:13:56.857Z,8.90
2022-12-12T08:16:59.647Z,10.02
2022-12-12T08:20:01.776Z,9.43
2022-12-12T08:23:04.340Z,8.60
2022-12-12T08:26:11.778Z,8.85
2022-12-12T08:29:15.026Z,9.43
2022-12-12T08:32:17.419Z,9.02
2022-12-12T08:35:19.760Z,9.10
2022-12-12T08:38:22.056Z,9.73
2022-12-12T08:41:25.184Z,9.38
2022-12-12T08:44:27.282Z,8.75
2022-12-12T08:47:29.607Z,8.43
2022-12-12T08:50:31.765Z,8.95
2022-12-12T08:53:34.093Z,8.73
2022-12-12T08:56:37.803Z,8.32
2022-12-12T08:59:40.183Z,8.05
2022-12-12T09:02:42.957Z,7.95
2022-12-12T09:05:45.656Z,7.53
2022-12-12T09:08:48.097Z,7.35
2022-12-12T09:11:50.407Z,7.60
2022-12-12T09:14:52.440Z,8.75
2022-12-12T09:17:54.836Z,7.60
2022-12-12T09:20:58.748Z,8.27
2022-12-12T09:24:01.923Z,8.43
2022-12-12T09:27:04.431Z,7.00
2022-12-12T09:30:07.456Z,7.30
2022-12-12T09:33:10.092Z,7.87
2022-12-12T09:36:13.669Z,7.43
2022-12-12T09:39:15.766Z,7.15
2022-12-12T09:42:31.271Z,8.82
2022-12-12T09:45:37.070Z,8.55
2022-12-12T09:48:43.996Z,7.68
2022-12-12T09:51:49.043Z,7.32
2022-12-12T09:54:51.400Z,7.78
2022-12-12T09:58:04.516Z,7.68
2022-12-12T10:01:36.814Z,8.52
2022-12-12T10:04:42.492Z,8.20
2022-12-12T10:07:49.261Z,8.18
2022-12-12T10:10:59.366Z,7.93
2022-12-12T10:14:04.955Z,8.00
2022-12-12T10:17:15.008Z,8.50
2022-12-12T10:20:22.472Z,8.00
2022-12-12T10:23:35.752Z,7.85
2022-12-12T10:26:42.812Z,8.77
2022-12-12T10:29:48.572Z,8.00
2022-12-12T10:33:11.354Z,8.27
2022-12-12T10:36:32.931Z,7.03
2022-12-12T10:39:54.692Z,8.07
2022-12-12T10:43:08.668Z,7.78
2022-12-12T10:46:22.614Z,8.00
2022-12-12T10:49:25.174Z,6.97
2022-12-12T10:52:27.358Z,7.72
2022-12-12T10:55:58.835Z,8.57
2022-12-12T10:59:03.987Z,7.95
2022-12-12T11:02:22.298Z,7.97
2022-12-12T11:05:34.592Z,6.37
2022-12-12T11:08:37.426Z,6.68
2022-12-12T11:11:39.554Z,7.20
2022-12-12T11:14:48.783Z,7.12
2022-12-12T11:17:50.983Z,6.97
2022-12-12T11:20:56.362Z,7.10
2022-12-12T11:24:00.285Z,6.95
2022-12-12T11:27:06.704Z,6.90
2022-12-12T11:30:26.213Z,7.97
2022-12-12T11:33:34.566Z,7.40
2022-12-12T11:36:40.830Z,7.20
2022-12-12T11:39:46.222Z,7.10
2022-12-12T11:42:49.779Z,7.45
2022-12-12T11:45:58.405Z,6.97
2022-12-12T11:49:03.539Z,7.90
2022-12-12T11:52:19.869Z,8.10
2022-12-12T11:56:06.832Z,8.35
2022-12-12T11:59:28.089Z,7.03
2022-12-12T12:02:48.630Z,8.27
2022-12-12T12:06:15.388Z,8.25
2022-12-12T12:09:25.764Z,7.57
2022-12-12T12:12:48.909Z,7.50
2022-12-12T12:15:57.103Z,7.97
2022-12-12T12:19:24.262Z,7.65
2022-12-12T12:22:51.197Z,7.97
2022-12-12T12:25:57.687Z,7.03
2022-12-12T12:29:17.363Z,7.40
2022-12-12T12:32:36.743Z,7.35
2022-12-12T12:35:54.260Z,6.95
2022-12-12T12:39:10.725Z,6.55
2022-12-12T12:42:24.007Z,7.25
2022-12-12T12:45:45.377Z,7.40
2022-12-12T12:48:55.784Z,7.43
2022-12-12T12:52:03.036Z,7.97
2022-12-12T12:55:13.513Z,7.07
2022-12-12T12:58:22.960Z,7.90
2022-12-12T13:01:31.893Z,7.10
2022-12-12T13:05:06.624Z,7.90
2022-12-12T13:08:27.072Z,7.82
2022-12-12T13:11:40.971Z,7.75
2022-12-12T13:14:51.515Z,7.32
2022-12-12T13:18:01.588Z,7.22
2022-12-12T13:21:32.995Z,7.90
2022-12-12T13:24:48.570Z,7.55
2022-12-12T13:27:55.068Z,7.00
2022-12-12T13:34:21.517Z,6.85
2022-12-12T13:37:24.076Z,7.00
2022-12-12T13:40:29.121Z,6.05
2022-12-12T13:43:34.343Z,6.40
2022-12-12T13:46:38.219Z,6.80
2022-12-12T13:49:45.885Z,6.55
2022-12-12T13:53:07.800Z,6.47
2022-12-12T13:56:46.786Z,6.07
2022-12-12T13:59:57.862Z,6.18
2022-12-12T14:03:22.878Z,6.62
2022-12-12T14:06:29.561Z,6.97
2022-12-12T14:09:48.293Z,6.45
2022-12-12T14:12:51.982Z,5.72
2022-12-12T14:16:16.776Z,7.00
2022-12-12T14:19:29.465Z,7.00
2022-12-12T14:22:37.496Z,7.65
2022-12-12T14:25:41.229Z,7.28
2022-12-12T14:28:43.283Z,7.05
2022-12-12T14:32:06.261Z,6.87
2022-12-12T14:35:33.305Z,7.07
2022-12-12T14:38:35.621Z,7.70
2022-12-12T14:41:39.508Z,7.68
2022-12-12T14:44:50.522Z,7.72
2022-12-12T14:48:09.487Z,7.43
2022-12-12T14:51:14.445Z,8.27
2022-12-12T14:54:20.031Z,7.85
2022-12-12T14:57:24.190Z,8.13
2022-12-12T15:00:27.997Z,8.18
2022-12-12T15:03:43.186Z,7.72
2022-12-12T15:06:52.957Z,8.00
2022-12-12T15:09:55.490Z,7.40
2022-12-12T15:12:57.683Z,8.55
2022-12-12T15:16:03.913Z,8.20
2022-12-12T15:19:13.557Z,8.38
2022-12-12T15:22:24.312Z,8.73
2022-12-12T15:25:30.148Z,8.65
2022-12-12T15:28:32.765Z,9.00
2022-12-12T15:31:35.172Z,8.95
2022-12-12T15:34:41.556Z,8.48
2022-12-12T15:37:43.865Z,10.00
2022-12-12T15:40:56.773Z,9.10
2022-12-12T15:43:58.956Z,8.70
2022-12-12T15:47:01.411Z,9.52
2022-12-12T15:50:16.526Z,9.60
2022-12-12T15:53:23.013Z,8.95
2022-12-12T15:56:28.971Z,8.88
2022-12-12T15:59:33.343Z,8.68
2022-12-12T16:02:35.716Z,10.13
2022-12-12T16:05:39.529Z,9.40
2022-12-12T16:08:54.225Z,10.02
2022-12-12T16:11:59.856Z,8.98
2022-12-12T16:15:19.037Z,9.23
2022-12-12T16:18:24.164Z,9.25
2022-12-12T16:21:27.921Z,8.98
2022-12-12T16:24:30.223Z,9.02
2022-12-12T16:27:32.284Z,8.10
2022-12-12T16:30:36.277Z,7.80
2022-12-12T16:33:40.185Z,7.95
2022-12-12T16:36:42.701Z,18.70
2022-12-12T16:39:44.873Z,16.00
2022-12-12T16:43:04.805Z,7.37
